sensor_id;sensor_type;location;lat;lon;timestamp;temperature;humidity
18083;DHT22;9168;51.194;6.840;2023-01-15T00:00:50;8.40;99.90
18083;DHT22;9168;51.194;6.840;2023-01-15T00:03:17;8.40;99.90
18083;DHT22;9168;51.194;6.840;2023-01-15T00:05:44;8.40;99.90
18083;DHT22;9168;51.194;6.840;2023-01-15T00:08:11;8.40;99.90
18083;DHT22;9168;51.194;6.840;2023-01-15T00:10:38;8.40;99.90
18083;DHT22;9168;51.194;6.840;2023-01-15T00:13:04;8.40;99.90
18083;DHT22;9168;51.194;6.840;2023-01-15T00:15:31;8.30;99.90
18083;DHT22;9168;51.194;6.840;2023-01-15T00:18:00;8.30;99.90
18083;DHT22;9168;51.194;6.840;2023-01-15T00:20:27;8.20;99.90
18083;DHT22;9168;51.194;6.840;2023-01-15T00:22:53;8.20;99.90
18083;DHT22;9168;51.194;6.840;2023-01-15T00:25:20;8.20;99.90
18083;DHT22;9168;51.194;6.840;2023-01-15T00:28:04;8.10;99.90
18083;DHT22;9168;51.194;6.840;2023-01-15T00:30:31;8.10;99.90
18083;DHT22;9168;51.194;6.840;2023-01-15T00:33:00;8.00;99.90
18083;DHT22;9168;51.194;6.840;2023-01-15T00:35:26;8.00;99.90
18083;DHT22;9168;51.194;6.840;2023-01-15T00:37:53;8.00;99.90
18083;DHT22;9168;51.194;6.840;2023-01-15T00:40:20;8.00;99.90
18083;DHT22;9168;51.194;6.840;2023-01-15T00:42:47;7.90;99.90
18083;DHT22;9168;51.194;6.840;2023-01-15T00:45:14;7.90;99.90
18083;DHT22;9168;51.194;6.840;2023-01-15T00:47:42;7.80;99.90
18083;DHT22;9168;51.194;6.840;2023-01-15T00:50:13;7.80;99.90
18083;DHT22;9168;51.194;6.840;2023-01-15T00:52:41;7.80;99.90
18083;DHT22;9168;51.194;6.840;2023-01-15T00:55:08;7.80;99.90
18083;DHT22;9168;51.194;6.840;2023-01-15T00:57:35;7.80;99.90
18083;DHT22;9168;51.194;6.840;2023-01-15T01:00:03;7.80;99.90
18083;DHT22;9168;51.194;6.840;2023-01-15T01:02:30;7.70;99.90
18083;DHT22;9168;51.194;6.840;2023-01-15T01:04:57;7.70;99.90
18083;DHT22;9168;51.194;6.840;2023-01-15T01:07:25;7.70;99.90
18083;DHT22;9168;51.194;6.840;2023-01-15T01:09:52;7.70;99.90
18083;DHT22;9168;51.194;6.840;2023-01-15T01:12:19;7.60;99.90
18083;DHT22;9168;51.194;6.840;2023-01-15T01:14:48;7.60;99.90
18083;DHT22;9168;51.194;6.840;2023-01-15T01:17:15;7.60;99.90
18083;DHT22;9168;51.194;6.840;2023-01-15T01:19:41;7.60;99.90
18083;DHT22;9168;51.194;6.840;2023-01-15T01:22:08;7.60;99.90
18083;DHT22;9168;51.194;6.840;2023-01-15T01:24:36;7.70;99.90
18083;DHT22;9168;51.194;6.840;2023-01-15T01:27:03;7.60;99.90
18083;DHT22;9168;51.194;6.840;2023-01-15T01:29:30;7.60;99.90
18083;DHT22;9168;51.194;6.840;2023-01-15T01:31:57;7.60;99.90
18083;DHT22;9168;51.194;6.840;2023-01-15T01:34:24;7.60;99.90
18083;DHT22;9168;51.194;6.840;2023-01-15T01:36:51;7.60;99.90
18083;DHT22;9168;51.194;6.840;2023-01-15T01:39:19;7.60;99.90
18083;DHT22;9168;51.194;6.840;2023-01-15T01:41:48;7.60;99.90
18083;DHT22;9168;51.194;6.840;2023-01-15T01:47:21;7.50;99.90
18083;DHT22;9168;51.194;6.840;2023-01-15T01:49:51;7.60;99.90
18083;DHT22;9168;51.194;6.840;2023-01-15T01:52:21;7.50;99.90
18083;DHT22;9168;51.194;6.840;2023-01-15T01:54:50;7.50;99.90
18083;DHT22;9168;51.194;6.840;2023-01-15T01:57:20;7.50;99.90
18083;DHT22;9168;51.194;6.840;2023-01-15T01:59:49;7.50;99.90
18083;DHT22;9168;51.194;6.840;2023-01-15T02:02:18;7.50;99.90
18083;DHT22;9168;51.194;6.840;2023-01-15T02:04:45;7.50;99.90
18083;DHT22;9168;51.194;6.840;2023-01-15T02:07:13;7.50;99.90
18083;DHT22;9168;51.194;6.840;2023-01-15T02:09:40;7.40;99.90
18083;DHT22;9168;51.194;6.840;2023-01-15T02:12:10;7.40;99.90
18083;DHT22;9168;51.194;6.840;2023-01-15T02:14:49;7.40;99.90
18083;DHT22;9168;51.194;6.840;2023-01-15T02:17:23;7.40;99.90
18083;DHT22;9168;51.194;6.840;2023-01-15T02:19:57;7.40;99.90
18083;DHT22;9168;51.194;6.840;2023-01-15T02:22:34;7.40;99.90
18083;DHT22;9168;51.194;6.840;2023-01-15T02:25:08;7.50;99.90
18083;DHT22;9168;51.194;6.840;2023-01-15T02:27:42;7.50;99.90
18083;DHT22;9168;51.194;6.840;2023-01-15T02:30:14;7.50;99.90
18083;DHT22;9168;51.194;6.840;2023-01-15T02:32:45;7.50;99.90
18083;DHT22;9168;51.194;6.840;2023-01-15T02:35:18;7.50;99.90
18083;DHT22;9168;51.194;6.840;2023-01-15T02:37:50;7.50;99.90
18083;DHT22;9168;51.194;6.840;2023-01-15T02:40:18;7.50;99.90
18083;DHT22;9168;51.194;6.840;2023-01-15T02:42:48;7.50;99.90
18083;DHT22;9168;51.194;6.840;2023-01-15T02:45:18;7.40;99.90
18083;DHT22;9168;51.194;6.840;2023-01-15T02:47:50;7.40;99.90
18083;DHT22;9168;51.194;6.840;2023-01-15T02:50:22;7.40;99.90
18083;DHT22;9168;51.194;6.840;2023-01-15T02:52:54;7.40;99.90
18083;DHT22;9168;51.194;6.840;2023-01-15T02:55:27;7.50;99.90
18083;DHT22;9168;51.194;6.840;2023-01-15T02:58:00;7.50;99.90
18083;DHT22;9168;51.194;6.840;2023-01-15T03:00:31;7.50;99.90
18083;DHT22;9168;51.194;6.840;2023-01-15T03:03:05;7.50;99.90
18083;DHT22;9168;51.194;6.840;2023-01-15T03:05:37;7.50;99.90
18083;DHT22;9168;51.194;6.840;2023-01-15T03:08:06;7.60;99.90
18083;DHT22;9168;51.194;6.840;2023-01-15T03:10:40;7.50;99.90
18083;DHT22;9168;51.194;6.840;2023-01-15T03:13:10;7.50;99.90
18083;DHT22;9168;51.194;6.840;2023-01-15T03:15:47;7.50;99.90
18083;DHT22;9168;51.194;6.840;2023-01-15T03:18:36;7.50;99.90
18083;DHT22;9168;51.194;6.840;2023-01-15T03:21:09;7.40;99.90
18083;DHT22;9168;51.194;6.840;2023-01-15T03:23:43;7.40;99.90
18083;DHT22;9168;51.194;6.840;2023-01-15T03:26:11;7.40;99.90
18083;DHT22;9168;51.194;6.840;2023-01-15T03:28:41;7.40;99.90
18083;DHT22;9168;51.194;6.840;2023-01-15T03:31:09;7.40;99.90
18083;DHT22;9168;51.194;6.840;2023-01-15T03:33:35;7.40;99.90
18083;DHT22;9168;51.194;6.840;2023-01-15T03:36:03;7.40;99.90
18083;DHT22;9168;51.194;6.840;2023-01-15T03:38:31;7.40;99.90
18083;DHT22;9168;51.194;6.840;2023-01-15T03:41:06;7.40;99.90
18083;DHT22;9168;51.194;6.840;2023-01-15T03:43:45;7.40;99.90
18083;DHT22;9168;51.194;6.840;2023-01-15T03:46:26;7.40;99.90
18083;DHT22;9168;51.194;6.840;2023-01-15T03:48:58;7.40;99.90
18083;DHT22;9168;51.194;6.840;2023-01-15T03:51:33;7.40;99.90
18083;DHT22;9168;51.194;6.840;2023-01-15T03:54:02;7.40;99.90
18083;DHT22;9168;51.194;6.840;2023-01-15T03:56:36;7.40;99.90
18083;DHT22;9168;51.194;6.840;2023-01-15T03:59:10;7.40;99.90
18083;DHT22;9168;51.194;6.840;2023-01-15T04:01:40;7.40;99.90
18083;DHT22;9168;51.194;6.840;2023-01-15T04:04:09;7.40;99.90
18083;DHT22;9168;51.194;6.840;2023-01-15T04:06:37;7.40;99.90
18083;DHT22;9168;51.194;6.840;2023-01-15T04:09:07;7.40;99.90
18083;DHT22;9168;51.194;6.840;2023-01-15T04:11:35;7.40;99.90
18083;DHT22;9168;51.194;6.840;2023-01-15T04:14:02;7.40;99.90
18083;DHT22;9168;51.194;6.840;2023-01-15T04:16:31;7.40;99.90
18083;DHT22;9168;51.194;6.840;2023-01-15T04:18:59;7.40;99.90
18083;DHT22;9168;51.194;6.840;2023-01-15T04:21:26;7.40;99.90
18083;DHT22;9168;51.194;6.840;2023-01-15T04:23:52;7.40;99.90
18083;DHT22;9168;51.194;6.840;2023-01-15T04:26:19;7.40;99.90
18083;DHT22;9168;51.194;6.840;2023-01-15T04:28:46;7.40;99.90
18083;DHT22;9168;51.194;6.840;2023-01-15T04:31:13;7.40;99.90
18083;DHT22;9168;51.194;6.840;2023-01-15T04:33:42;7.40;99.90
18083;DHT22;9168;51.194;6.840;2023-01-15T04:36:09;7.50;99.90
18083;DHT22;9168;51.194;6.840;2023-01-15T04:38:36;7.40;99.90
18083;DHT22;9168;51.194;6.840;2023-01-15T04:41:04;7.40;99.90
18083;DHT22;9168;51.194;6.840;2023-01-15T04:43:49;7.40;99.90
18083;DHT22;9168;51.194;6.840;2023-01-15T04:46:35;7.40;99.90
18083;DHT22;9168;51.194;6.840;2023-01-15T04:49:04;7.40;99.90
18083;DHT22;9168;51.194;6.840;2023-01-15T04:51:31;7.40;99.90
18083;DHT22;9168;51.194;6.840;2023-01-15T04:54:01;7.30;99.90
18083;DHT22;9168;51.194;6.840;2023-01-15T04:56:28;7.30;99.90
18083;DHT22;9168;51.194;6.840;2023-01-15T04:58:55;7.30;99.90
18083;DHT22;9168;51.194;6.840;2023-01-15T05:01:23;7.30;99.90
18083;DHT22;9168;51.194;6.840;2023-01-15T05:03:49;7.30;99.90
18083;DHT22;9168;51.194;6.840;2023-01-15T05:06:18;7.30;99.90
18083;DHT22;9168;51.194;6.840;2023-01-15T05:08:45;7.30;99.90
18083;DHT22;9168;51.194;6.840;2023-01-15T05:11:12;7.30;99.90
18083;DHT22;9168;51.194;6.840;2023-01-15T05:13:39;7.30;99.90
18083;DHT22;9168;51.194;6.840;2023-01-15T05:16:11;7.30;99.90
18083;DHT22;9168;51.194;6.840;2023-01-15T05:18:39;7.40;99.90
18083;DHT22;9168;51.194;6.840;2023-01-15T05:21:08;7.40;99.90
18083;DHT22;9168;51.194;6.840;2023-01-15T05:23:40;7.30;99.90
18083;DHT22;9168;51.194;6.840;2023-01-15T05:26:06;7.40;99.90
18083;DHT22;9168;51.194;6.840;2023-01-15T05:28:33;7.30;99.90
18083;DHT22;9168;51.194;6.840;2023-01-15T05:31:05;7.30;99.90
18083;DHT22;9168;51.194;6.840;2023-01-15T05:33:33;7.30;99.90
18083;DHT22;9168;51.194;6.840;2023-01-15T05:36:01;7.30;99.90
18083;DHT22;9168;51.194;6.840;2023-01-15T05:38:28;7.30;99.90
18083;DHT22;9168;51.194;6.840;2023-01-15T05:40:56;7.30;99.90
18083;DHT22;9168;51.194;6.840;2023-01-15T05:43:23;7.30;99.90
18083;DHT22;9168;51.194;6.840;2023-01-15T05:45:50;7.30;99.90
18083;DHT22;9168;51.194;6.840;2023-01-15T05:48:17;7.30;99.90
18083;DHT22;9168;51.194;6.840;2023-01-15T05:50:44;7.30;99.90
18083;DHT22;9168;51.194;6.840;2023-01-15T05:53:10;7.30;99.90
18083;DHT22;9168;51.194;6.840;2023-01-15T05:55:37;7.30;99.90
18083;DHT22;9168;51.194;6.840;2023-01-15T05:58:05;7.30;99.90
18083;DHT22;9168;51.194;6.840;2023-01-15T06:00:32;7.30;99.90
18083;DHT22;9168;51.194;6.840;2023-01-15T06:02:59;7.30;99.90
18083;DHT22;9168;51.194;6.840;2023-01-15T06:05:26;7.30;99.90
18083;DHT22;9168;51.194;6.840;2023-01-15T06:07:53;7.30;99.90
18083;DHT22;9168;51.194;6.840;2023-01-15T06:10:20;7.30;99.90
18083;DHT22;9168;51.194;6.840;2023-01-15T06:12:47;7.30;99.90
18083;DHT22;9168;51.194;6.840;2023-01-15T06:15:15;7.30;99.90
18083;DHT22;9168;51.194;6.840;2023-01-15T06:17:42;7.30;99.90
18083;DHT22;9168;51.194;6.840;2023-01-15T06:20:10;7.30;99.90
18083;DHT22;9168;51.194;6.840;2023-01-15T06:22:37;7.30;99.90
18083;DHT22;9168;51.194;6.840;2023-01-15T06:25:04;7.40;99.90
18083;DHT22;9168;51.194;6.840;2023-01-15T06:27:32;7.40;99.90
18083;DHT22;9168;51.194;6.840;2023-01-15T06:29:58;7.40;99.90
18083;DHT22;9168;51.194;6.840;2023-01-15T06:32:27;7.30;99.90
18083;DHT22;9168;51.194;6.840;2023-01-15T06:34:54;7.30;99.90
18083;DHT22;9168;51.194;6.840;2023-01-15T06:37:20;7.30;99.90
18083;DHT22;9168;51.194;6.840;2023-01-15T06:39:47;7.30;99.90
18083;DHT22;9168;51.194;6.840;2023-01-15T06:42:14;7.30;99.90
18083;DHT22;9168;51.194;6.840;2023-01-15T06:44:59;7.30;99.90
18083;DHT22;9168;51.194;6.840;2023-01-15T06:47:45;7.30;99.90
18083;DHT22;9168;51.194;6.840;2023-01-15T06:50:12;7.30;99.90
18083;DHT22;9168;51.194;6.840;2023-01-15T06:52:40;7.30;99.90
18083;DHT22;9168;51.194;6.840;2023-01-15T06:55:08;7.30;99.90
18083;DHT22;9168;51.194;6.840;2023-01-15T06:57:37;7.30;99.90
18083;DHT22;9168;51.194;6.840;2023-01-15T07:00:05;7.30;99.90
18083;DHT22;9168;51.194;6.840;2023-01-15T07:02:32;7.30;99.90
18083;DHT22;9168;51.194;6.840;2023-01-15T07:05:00;7.20;99.90
18083;DHT22;9168;51.194;6.840;2023-01-15T07:07:27;7.20;99.90
18083;DHT22;9168;51.194;6.840;2023-01-15T07:09:54;7.20;99.90
18083;DHT22;9168;51.194;6.840;2023-01-15T07:12:21;7.20;99.90
18083;DHT22;9168;51.194;6.840;2023-01-15T07:14:48;7.20;99.90
18083;DHT22;9168;51.194;6.840;2023-01-15T07:17:15;7.20;99.90
18083;DHT22;9168;51.194;6.840;2023-01-15T07:19:44;7.20;99.90
18083;DHT22;9168;51.194;6.840;2023-01-15T07:22:12;7.20;99.90
18083;DHT22;9168;51.194;6.840;2023-01-15T07:24:39;7.20;99.90
18083;DHT22;9168;51.194;6.840;2023-01-15T07:27:06;7.10;99.90
18083;DHT22;9168;51.194;6.840;2023-01-15T07:29:33;7.10;99.90
18083;DHT22;9168;51.194;6.840;2023-01-15T07:32:00;7.20;99.90
18083;DHT22;9168;51.194;6.840;2023-01-15T07:34:27;7.20;99.90
18083;DHT22;9168;51.194;6.840;2023-01-15T07:36:54;7.20;99.90
18083;DHT22;9168;51.194;6.840;2023-01-15T07:39:22;7.20;99.90
18083;DHT22;9168;51.194;6.840;2023-01-15T07:41:49;7.20;99.90
18083;DHT22;9168;51.194;6.840;2023-01-15T07:44:33;7.10;99.90
18083;DHT22;9168;51.194;6.840;2023-01-15T07:47:20;7.10;99.90
18083;DHT22;9168;51.194;6.840;2023-01-15T07:50:07;7.10;99.90
18083;DHT22;9168;51.194;6.840;2023-01-15T07:52:34;7.20;99.90
18083;DHT22;9168;51.194;6.840;2023-01-15T07:55:03;7.20;99.90
18083;DHT22;9168;51.194;6.840;2023-01-15T07:57:33;7.10;99.90
18083;DHT22;9168;51.194;6.840;2023-01-15T08:00:00;7.10;99.90
18083;DHT22;9168;51.194;6.840;2023-01-15T08:02:26;7.10;99.90
18083;DHT22;9168;51.194;6.840;2023-01-15T08:04:53;7.10;99.90
18083;DHT22;9168;51.194;6.840;2023-01-15T08:07:20;7.10;99.90
18083;DHT22;9168;51.194;6.840;2023-01-15T08:09:47;7.10;99.90
18083;DHT22;9168;51.194;6.840;2023-01-15T08:12:15;7.10;99.90
18083;DHT22;9168;51.194;6.840;2023-01-15T08:15:00;7.20;99.90
18083;DHT22;9168;51.194;6.840;2023-01-15T08:17:40;7.10;99.90
18083;DHT22;9168;51.194;6.840;2023-01-15T08:20:10;7.10;99.90
18083;DHT22;9168;51.194;6.840;2023-01-15T08:22:37;7.10;99.90
18083;DHT22;9168;51.194;6.840;2023-01-15T08:25:06;7.10;99.90
18083;DHT22;9168;51.194;6.840;2023-01-15T08:27:35;7.00;99.90
18083;DHT22;9168;51.194;6.840;2023-01-15T08:30:03;7.00;99.90
18083;DHT22;9168;51.194;6.840;2023-01-15T08:32:30;7.00;99.90
18083;DHT22;9168;51.194;6.840;2023-01-15T08:34:57;7.00;99.90
18083;DHT22;9168;51.194;6.840;2023-01-15T08:37:24;7.00;99.90
18083;DHT22;9168;51.194;6.840;2023-01-15T08:39:51;7.00;99.90
18083;DHT22;9168;51.194;6.840;2023-01-15T08:42:18;6.90;99.90
18083;DHT22;9168;51.194;6.840;2023-01-15T08:44:46;7.00;99.90
18083;DHT22;9168;51.194;6.840;2023-01-15T08:47:13;7.00;99.90
18083;DHT22;9168;51.194;6.840;2023-01-15T08:49:40;6.90;99.90
18083;DHT22;9168;51.194;6.840;2023-01-15T08:52:07;6.90;99.90
18083;DHT22;9168;51.194;6.840;2023-01-15T08:54:34;6.90;99.90
18083;DHT22;9168;51.194;6.840;2023-01-15T08:57:01;6.80;99.90
18083;DHT22;9168;51.194;6.840;2023-01-15T08:59:28;6.80;99.90
18083;DHT22;9168;51.194;6.840;2023-01-15T09:01:57;6.80;99.90
18083;DHT22;9168;51.194;6.840;2023-01-15T09:04:23;6.70;99.90
18083;DHT22;9168;51.194;6.840;2023-01-15T09:06:51;6.70;99.90
18083;DHT22;9168;51.194;6.840;2023-01-15T09:09:18;6.60;99.90
18083;DHT22;9168;51.194;6.840;2023-01-15T09:11:44;6.60;99.90
18083;DHT22;9168;51.194;6.840;2023-01-15T09:14:13;6.70;99.90
18083;DHT22;9168;51.194;6.840;2023-01-15T09:16:41;6.60;99.90
18083;DHT22;9168;51.194;6.840;2023-01-15T09:19:10;6.60;99.90
18083;DHT22;9168;51.194;6.840;2023-01-15T09:21:37;6.60;99.90
18083;DHT22;9168;51.194;6.840;2023-01-15T09:24:04;6.60;99.90
18083;DHT22;9168;51.194;6.840;2023-01-15T09:26:33;6.50;99.90
18083;DHT22;9168;51.194;6.840;2023-01-15T09:29:01;6.50;99.90
18083;DHT22;9168;51.194;6.840;2023-01-15T09:31:28;6.50;99.90
18083;DHT22;9168;51.194;6.840;2023-01-15T09:33:56;6.50;99.90
18083;DHT22;9168;51.194;6.840;2023-01-15T09:36:26;6.40;99.90
18083;DHT22;9168;51.194;6.840;2023-01-15T09:38:56;6.50;99.90
18083;DHT22;9168;51.194;6.840;2023-01-15T09:41:24;6.50;99.90
18083;DHT22;9168;51.194;6.840;2023-01-15T09:44:28;6.60;99.90
18083;DHT22;9168;51.194;6.840;2023-01-15T09:47:05;6.70;99.90
18083;DHT22;9168;51.194;6.840;2023-01-15T09:49:53;6.70;99.90
18083;DHT22;9168;51.194;6.840;2023-01-15T09:52:35;6.80;99.90
18083;DHT22;9168;51.194;6.840;2023-01-15T09:55:11;6.80;99.90
18083;DHT22;9168;51.194;6.840;2023-01-15T09:57:39;6.80;99.90
18083;DHT22;9168;51.194;6.840;2023-01-15T10:00:15;6.90;99.90
18083;DHT22;9168;51.194;6.840;2023-01-15T10:02:46;6.90;99.90
18083;DHT22;9168;51.194;6.840;2023-01-15T10:05:18;7.00;99.90
18083;DHT22;9168;51.194;6.840;2023-01-15T10:07:55;7.00;99.90
18083;DHT22;9168;51.194;6.840;2023-01-15T10:10:26;7.10;99.90
18083;DHT22;9168;51.194;6.840;2023-01-15T10:13:01;7.20;99.90
18083;DHT22;9168;51.194;6.840;2023-01-15T10:15:35;7.20;99.90
18083;DHT22;9168;51.194;6.840;2023-01-15T10:18:04;7.30;99.90
18083;DHT22;9168;51.194;6.840;2023-01-15T10:20:51;7.30;99.90
18083;DHT22;9168;51.194;6.840;2023-01-15T10:23:34;7.30;99.90
18083;DHT22;9168;51.194;6.840;2023-01-15T10:26:13;7.40;99.90
18083;DHT22;9168;51.194;6.840;2023-01-15T10:28:59;7.50;99.90
18083;DHT22;9168;51.194;6.840;2023-01-15T10:31:46;7.70;99.90
18083;DHT22;9168;51.194;6.840;2023-01-15T10:34:49;7.80;99.90
18083;DHT22;9168;51.194;6.840;2023-01-15T10:37:22;7.90;99.90
18083;DHT22;9168;51.194;6.840;2023-01-15T10:40:04;7.90;99.90
18083;DHT22;9168;51.194;6.840;2023-01-15T10:42:44;7.90;99.90
18083;DHT22;9168;51.194;6.840;2023-01-15T10:45:18;7.90;99.90
18083;DHT22;9168;51.194;6.840;2023-01-15T10:47:49;8.00;99.90
18083;DHT22;9168;51.194;6.840;2023-01-15T10:50:20;7.90;99.90
18083;DHT22;9168;51.194;6.840;2023-01-15T10:52:49;7.90;99.90
18083;DHT22;9168;51.194;6.840;2023-01-15T10:55:24;8.00;99.90
18083;DHT22;9168;51.194;6.840;2023-01-15T10:57:56;8.00;99.90
18083;DHT22;9168;51.194;6.840;2023-01-15T11:00:26;8.10;99.90
18083;DHT22;9168;51.194;6.840;2023-01-15T11:02:59;8.20;99.90
18083;DHT22;9168;51.194;6.840;2023-01-15T11:05:27;8.30;99.90
18083;DHT22;9168;51.194;6.840;2023-01-15T11:07:56;8.30;99.90
18083;DHT22;9168;51.194;6.840;2023-01-15T11:10:24;8.40;99.90
18083;DHT22;9168;51.194;6.840;2023-01-15T11:12:53;8.50;99.90
18083;DHT22;9168;51.194;6.840;2023-01-15T11:15:40;8.60;99.90
18083;DHT22;9168;51.194;6.840;2023-01-15T11:18:29;8.50;99.90
18083;DHT22;9168;51.194;6.840;2023-01-15T11:21:16;8.40;99.90
18083;DHT22;9168;51.194;6.840;2023-01-15T11:23:43;8.50;99.90
18083;DHT22;9168;51.194;6.840;2023-01-15T11:26:19;8.50;99.90
18083;DHT22;9168;51.194;6.840;2023-01-15T11:28:47;8.40;99.90
18083;DHT22;9168;51.194;6.840;2023-01-15T11:31:15;8.30;99.90
18083;DHT22;9168;51.194;6.840;2023-01-15T11:33:44;8.30;99.90
18083;DHT22;9168;51.194;6.840;2023-01-15T11:36:22;8.40;99.90
18083;DHT22;9168;51.194;6.840;2023-01-15T11:38:50;8.60;99.90
18083;DHT22;9168;51.194;6.840;2023-01-15T11:41:21;8.60;99.90
18083;DHT22;9168;51.194;6.840;2023-01-15T11:43:55;8.60;99.90
18083;DHT22;9168;51.194;6.840;2023-01-15T11:46:40;8.60;99.90
18083;DHT22;9168;51.194;6.840;2023-01-15T11:49:25;8.50;99.90
18083;DHT22;9168;51.194;6.840;2023-01-15T11:52:12;8.30;99.90
18083;DHT22;9168;51.194;6.840;2023-01-15T11:54:44;8.20;99.90
18083;DHT22;9168;51.194;6.840;2023-01-15T11:57:22;8.20;99.90
18083;DHT22;9168;51.194;6.840;2023-01-15T11:59:51;8.10;99.90
18083;DHT22;9168;51.194;6.840;2023-01-15T12:02:26;8.10;99.90
18083;DHT22;9168;51.194;6.840;2023-01-15T12:04:59;8.30;99.90
18083;DHT22;9168;51.194;6.840;2023-01-15T12:07:28;8.80;99.90
18083;DHT22;9168;51.194;6.840;2023-01-15T12:10:13;9.10;99.90
18083;DHT22;9168;51.194;6.840;2023-01-15T12:12:51;9.50;99.90
18083;DHT22;9168;51.194;6.840;2023-01-15T12:15:36;9.50;99.90
18083;DHT22;9168;51.194;6.840;2023-01-15T12:18:20;9.20;99.90
18083;DHT22;9168;51.194;6.840;2023-01-15T12:20:59;8.90;99.90
18083;DHT22;9168;51.194;6.840;2023-01-15T12:23:48;8.70;99.90
18083;DHT22;9168;51.194;6.840;2023-01-15T12:26:23;8.50;99.90
18083;DHT22;9168;51.194;6.840;2023-01-15T12:29:00;8.40;99.90
18083;DHT22;9168;51.194;6.840;2023-01-15T12:31:32;8.40;99.90
18083;DHT22;9168;51.194;6.840;2023-01-15T12:34:06;8.40;99.90
18083;DHT22;9168;51.194;6.840;2023-01-15T12:36:37;8.30;99.90
18083;DHT22;9168;51.194;6.840;2023-01-15T12:39:13;8.60;99.90
18083;DHT22;9168;51.194;6.840;2023-01-15T12:41:45;8.70;99.90
18083;DHT22;9168;51.194;6.840;2023-01-15T12:44:35;8.80;99.90
18083;DHT22;9168;51.194;6.840;2023-01-15T12:47:24;8.70;99.90
18083;DHT22;9168;51.194;6.840;2023-01-15T12:49:57;8.80;99.90
18083;DHT22;9168;51.194;6.840;2023-01-15T12:52:30;9.00;99.90
18083;DHT22;9168;51.194;6.840;2023-01-15T12:55:08;8.90;99.90
18083;DHT22;9168;51.194;6.840;2023-01-15T12:57:37;8.80;99.90
18083;DHT22;9168;51.194;6.840;2023-01-15T13:00:14;8.80;99.90
18083;DHT22;9168;51.194;6.840;2023-01-15T13:02:54;8.80;99.90
18083;DHT22;9168;51.194;6.840;2023-01-15T13:05:28;8.80;99.90
18083;DHT22;9168;51.194;6.840;2023-01-15T13:08:02;8.90;99.90
18083;DHT22;9168;51.194;6.840;2023-01-15T13:10:31;9.00;99.90
18083;DHT22;9168;51.194;6.840;2023-01-15T13:13:12;9.00;99.90
18083;DHT22;9168;51.194;6.840;2023-01-15T13:15:55;9.00;99.90
18083;DHT22;9168;51.194;6.840;2023-01-15T13:18:31;9.00;99.90
18083;DHT22;9168;51.194;6.840;2023-01-15T13:21:03;9.00;99.90
18083;DHT22;9168;51.194;6.840;2023-01-15T13:23:52;8.90;99.90
18083;DHT22;9168;51.194;6.840;2023-01-15T13:26:45;8.80;99.90
18083;DHT22;9168;51.194;6.840;2023-01-15T13:29:20;8.60;99.90
18083;DHT22;9168;51.194;6.840;2023-01-15T13:32:00;8.60;99.90
18083;DHT22;9168;51.194;6.840;2023-01-15T13:34:34;8.60;99.90
18083;DHT22;9168;51.194;6.840;2023-01-15T13:37:05;8.50;99.90
18083;DHT22;9168;51.194;6.840;2023-01-15T13:39:37;8.50;99.90
18083;DHT22;9168;51.194;6.840;2023-01-15T13:42:15;8.40;99.90
18083;DHT22;9168;51.194;6.840;2023-01-15T13:44:59;8.30;99.90
18083;DHT22;9168;51.194;6.840;2023-01-15T13:47:31;8.30;99.90
18083;DHT22;9168;51.194;6.840;2023-01-15T13:50:01;8.20;99.90
18083;DHT22;9168;51.194;6.840;2023-01-15T13:52:30;8.20;99.90
18083;DHT22;9168;51.194;6.840;2023-01-15T13:55:06;8.20;99.90
18083;DHT22;9168;51.194;6.840;2023-01-15T13:57:36;8.20;99.90
18083;DHT22;9168;51.194;6.840;2023-01-15T14:00:07;8.20;99.90
18083;DHT22;9168;51.194;6.840;2023-01-15T14:02:37;8.20;99.90
18083;DHT22;9168;51.194;6.840;2023-01-15T14:05:23;8.10;99.90
18083;DHT22;9168;51.194;6.840;2023-01-15T14:07:50;8.10;99.90
18083;DHT22;9168;51.194;6.840;2023-01-15T14:10:25;8.00;99.90
18083;DHT22;9168;51.194;6.840;2023-01-15T14:13:05;8.00;99.90
18083;DHT22;9168;51.194;6.840;2023-01-15T14:15:41;8.00;99.90
18083;DHT22;9168;51.194;6.840;2023-01-15T14:18:27;8.00;99.90
18083;DHT22;9168;51.194;6.840;2023-01-15T14:21:19;8.00;99.90
18083;DHT22;9168;51.194;6.840;2023-01-15T14:24:16;8.00;99.90
18083;DHT22;9168;51.194;6.840;2023-01-15T14:26:52;8.00;99.90
18083;DHT22;9168;51.194;6.840;2023-01-15T14:29:45;8.00;99.90
18083;DHT22;9168;51.194;6.840;2023-01-15T14:32:22;7.90;99.90
18083;DHT22;9168;51.194;6.840;2023-01-15T14:34:57;8.00;99.90
18083;DHT22;9168;51.194;6.840;2023-01-15T14:37:26;7.90;99.90
18083;DHT22;9168;51.194;6.840;2023-01-15T14:39:57;7.90;99.90
18083;DHT22;9168;51.194;6.840;2023-01-15T14:42:28;7.90;99.90
18083;DHT22;9168;51.194;6.840;2023-01-15T14:45:24;8.00;99.90
18083;DHT22;9168;51.194;6.840;2023-01-15T14:47:53;7.90;99.90
18083;DHT22;9168;51.194;6.840;2023-01-15T14:50:34;8.00;99.90
18083;DHT22;9168;51.194;6.840;2023-01-15T14:53:18;8.00;99.90
18083;DHT22;9168;51.194;6.840;2023-01-15T14:55:48;8.00;99.90
18083;DHT22;9168;51.194;6.840;2023-01-15T14:58:29;7.90;99.90
18083;DHT22;9168;51.194;6.840;2023-01-15T15:01:00;8.00;99.90
18083;DHT22;9168;51.194;6.840;2023-01-15T15:03:33;7.90;99.90
18083;DHT22;9168;51.194;6.840;2023-01-15T15:06:03;7.90;99.90
18083;DHT22;9168;51.194;6.840;2023-01-15T15:08:32;7.90;99.90
18083;DHT22;9168;51.194;6.840;2023-01-15T15:11:01;7.90;99.90
18083;DHT22;9168;51.194;6.840;2023-01-15T15:13:51;7.90;99.90
18083;DHT22;9168;51.194;6.840;2023-01-15T15:16:25;7.90;99.90
18083;DHT22;9168;51.194;6.840;2023-01-15T15:18:57;7.90;99.90
18083;DHT22;9168;51.194;6.840;2023-01-15T15:21:30;7.90;99.90
18083;DHT22;9168;51.194;6.840;2023-01-15T15:24:03;7.90;99.90
18083;DHT22;9168;51.194;6.840;2023-01-15T15:26:32;7.80;99.90
18083;DHT22;9168;51.194;6.840;2023-01-15T15:29:01;7.90;99.90
18083;DHT22;9168;51.194;6.840;2023-01-15T15:31:32;7.90;99.90
18083;DHT22;9168;51.194;6.840;2023-01-15T15:34:00;7.90;99.90
18083;DHT22;9168;51.194;6.840;2023-01-15T15:36:31;7.90;99.90
18083;DHT22;9168;51.194;6.840;2023-01-15T15:39:01;7.90;99.90
18083;DHT22;9168;51.194;6.840;2023-01-15T15:41:31;7.90;99.90
18083;DHT22;9168;51.194;6.840;2023-01-15T15:44:19;7.90;99.90
18083;DHT22;9168;51.194;6.840;2023-01-15T15:47:17;7.80;99.90
18083;DHT22;9168;51.194;6.840;2023-01-15T15:50:20;7.80;99.90
18083;DHT22;9168;51.194;6.840;2023-01-15T15:52:50;7.80;99.90
18083;DHT22;9168;51.194;6.840;2023-01-15T15:55:18;7.80;99.90
18083;DHT22;9168;51.194;6.840;2023-01-15T15:57:47;7.70;99.90
18083;DHT22;9168;51.194;6.840;2023-01-15T16:00:17;7.70;99.90
18083;DHT22;9168;51.194;6.840;2023-01-15T16:02:45;7.70;99.90
18083;DHT22;9168;51.194;6.840;2023-01-15T16:05:24;7.70;99.90
18083;DHT22;9168;51.194;6.840;2023-01-15T16:07:53;7.70;99.90
18083;DHT22;9168;51.194;6.840;2023-01-15T16:10:24;7.70;99.90
18083;DHT22;9168;51.194;6.840;2023-01-15T16:12:53;7.70;99.90
18083;DHT22;9168;51.194;6.840;2023-01-15T16:15:22;7.70;99.90
18083;DHT22;9168;51.194;6.840;2023-01-15T16:17:51;7.70;99.90
18083;DHT22;9168;51.194;6.840;2023-01-15T16:20:19;7.70;99.90
18083;DHT22;9168;51.194;6.840;2023-01-15T16:22:50;7.60;99.90
18083;DHT22;9168;51.194;6.840;2023-01-15T16:25:23;7.60;99.90
18083;DHT22;9168;51.194;6.840;2023-01-15T16:27:50;7.60;99.90
18083;DHT22;9168;51.194;6.840;2023-01-15T16:30:18;7.60;99.90
18083;DHT22;9168;51.194;6.840;2023-01-15T16:32:45;7.60;99.90
18083;DHT22;9168;51.194;6.840;2023-01-15T16:35:16;7.60;99.90